Eendracht — PDVN — position and weather

sailwx.info

Track history (hours):
 
Tides and Currents Weather Stations Pressure Air Temp Water Temp Dewpoint Dewpoint Depression Visibility Wind Speed Wind Dir Waves Ship Positions

Eendracht (Netherlands)

Last reported at 2017-May-23 08:55 UTC. Time now 2017-May-23 09:00 UTC.
Position N 51°49' E 003°17'.

Length 59 m; beam 12 m; draft 5 m.

Type: Sailing vessel. MMSI: 244543000.

Date/timePositionNaut miles runAvg speedWind from/ knotsBaromVisibWave heightAir tempDewpointWater temp
2017-May-23 08:55N 51°49' E 003°17'2 5.5
2017-May-23 08:30N 51°48' E 003°15'3 5.9
2017-May-23 08:00N 51°46' E 003°11'2 3.9
2017-May-23 07:30N 51°44' E 003°09'1 2.8
2017-May-23 07:00N 51°43' E 003°09'1 3.0
2017-May-23 06:29N 51°42' E 003°11'2 2.5
2017-May-23 05:51N 51°41' E 003°13'1 3.8
2017-May-23 05:30N 51°40' E 003°15'1 2.3
2017-May-23 05:00N 51°39' E 003°14'2 3.8
2017-May-23 04:30N 51°39' E 003°11'1 2.1
2017-May-23 04:01N 51°40' E 003°12'2 3.5
2017-May-23 03:30N 51°42' E 003°13'2 3.6
2017-May-23 03:00N 51°42' E 003°16'2 4.2
2017-May-23 02:30N 51°40' E 003°14'1 1.0
2017-May-23 02:00N 51°40' E 003°13'1 1.9
2017-May-23 01:30N 51°40' E 003°15'1 2.0
2017-May-23 01:00N 51°41' E 003°16'1 1.5
2017-May-23 00:29N 51°41' E 003°15'1 3.1
2017-May-23 00:00N 51°41' E 003°13'1 2.7
2017-May-22 23:30N 51°40' E 003°14'1 2.5
2017-May-22 23:00N 51°39' E 003°15'2 3.0
2017-May-22 22:23N 51°38' E 003°17'2 3.8
2017-May-22 21:46N 51°38' E 003°21'1 5.1
2017-May-22 21:30N 51°37' E 003°23'3 5.6
2017-May-22 21:00N 51°34' E 003°25'3 5.6
2017-May-22 20:30N 51°32' E 003°26'2 4.8
2017-May-22 20:00N 51°30' E 003°28'2 4.7
2017-May-22 19:30N 51°28' E 003°31'2 4.5
2017-May-22 19:00N 51°27' E 003°34'2 3.0
2017-May-22 18:30N 51°26' E 003°36'1 1.4
2017-May-22 18:00N 51°27' E 003°35'0 0.2
2017-May-22 17:28N 51°27' E 003°35'0 0.0
2017-May-22 16:58N 51°27' E 003°35'0 0.0
2017-May-22 16:22N 51°27' E 003°35'0 0.0
2017-May-22 15:55N 51°27' E 003°35'0 0.0
2017-May-22 15:28N 51°27' E 003°35'0 0.0
2017-May-22 14:58N 51°27' E 003°35'0 0.0
2017-May-22 13:58N 51°27' E 003°35'0 0.0
2017-May-22 13:28N 51°27' E 003°35'0 0.0
2017-May-22 12:58N 51°27' E 003°35'0 0.0
2017-May-22 12:07N 51°27' E 003°35'0 0.0
2017-May-22 11:58N 51°27' E 003°35'1 1.1
2017-May-22 11:30N 51°27' E 003°36'0 0.4
2017-May-22 11:00N 51°26' E 003°36'2 4.2
2017-May-22 10:30N 51°27' E 003°33'3 5.5
2017-May-22 10:00N 51°29' E 003°30'3 5.7
2017-May-22 09:30N 51°31' E 003°26'3 6.3
2017-May-22 09:00N 51°34' E 003°25'4 7.1
2017-May-22 08:26N 51°37' E 003°21'2 4.8
2017-May-22 08:00N 51°39' E 003°24'1 1.1
2017-May-22 07:30N 51°39' E 003°24'1 1.1
2017-May-22 07:00N 51°39' E 003°23'2 3.1
2017-May-22 06:30N 51°38' E 003°22'1 2.5
2017-May-22 06:01N 51°37' E 003°21'2 3.4
2017-May-22 05:31N 51°35' E 003°20'2 4.0
2017-May-22 05:00N 51°34' E 003°18'1 1.9
2017-May-22 04:30N 51°33' E 003°17'3 5.6
2017-May-22 04:00N 51°35' E 003°19'3 5.3
2017-May-22 03:30N 51°38' E 003°19'2 4.1
2017-May-22 02:56N 51°40' E 003°20'2 4.1
2017-May-22 02:30N 51°42' E 003°21'2 4.2
2017-May-22 02:00N 51°44' E 003°22'2 3.9
2017-May-22 01:30N 51°46' E 003°24'1 1.8
2017-May-22 01:00N 51°46' E 003°25'2 4.9
2017-May-22 00:30N 51°44' E 003°27'1 1.9
2017-May-22 00:01N 51°43' E 003°27'1 2.3
2017-May-21 23:30N 51°44' E 003°28'1 3.0
2017-May-21 23:00N 51°46' E 003°29'2 3.7
2017-May-21 22:30N 51°48' E 003°30'2 3.8
2017-May-21 22:00N 51°49' E 003°31'2 3.6
2017-May-21 21:31N 51°51' E 003°32'2 3.3
2017-May-21 21:00N 51°53' E 003°33'1 1.4
2017-May-21 20:30N 51°53' E 003°34'2 3.3
2017-May-21 20:00N 51°53' E 003°36'2 4.4
2017-May-21 19:30N 51°54' E 003°40'3 5.2
2017-May-21 19:00N 51°55' E 003°44'3 5.3
2017-May-21 18:30N 51°56' E 003°48'2 4.5
2017-May-21 18:01N 51°56' E 003°51'2 3.5
2017-May-21 17:30N 51°57' E 003°54'3 6.6
2017-May-21 17:00N 51°59' E 003°58'4 7.7
2017-May-21 16:31N 52°01' E 004°03'1 2.6
2017-May-21 16:01N 52°01' E 004°05'1 1.2
2017-May-21 15:31N 52°01' E 004°05'1 1.2
2017-May-21 15:00N 52°01' E 004°06'0 0.4
2017-May-21 14:30N 52°01' E 004°06'1 0.5
2017-May-21 13:30N 52°02' E 004°06'0 0.3
2017-May-21 13:01N 52°02' E 004°06'0 0.6
2017-May-21 12:31N 52°02' E 004°06'1 2.4
2017-May-21 12:01N 52°01' E 004°07'0 0.4
2017-May-21 11:30N 52°02' E 004°07'1 1.1
2017-May-21 11:01N 52°02' E 004°06'1 1.7
2017-May-21 10:30N 52°01' E 004°06'1 1.2
2017-May-21 10:00N 52°00' E 004°06'2 4.3
2017-May-21 09:30N 51°60' E 004°03'3 5.6
2017-May-21 09:00N 51°59' E 004°07'2 4.3
2017-May-21 08:30N 51°57' E 004°10'2 4.6
2017-May-21 08:00N 51°56' E 004°13'3 5.5
2017-May-21 07:30N 51°54' E 004°16'3 5.4
2017-May-21 07:00N 51°54' E 004°21'3 6.0
2017-May-21 06:30N 51°54' E 004°26'1 2.6
2017-May-21 06:00N 51°54' E 004°28'0 0.0
2017-May-21 05:29N 51°54' E 004°28'0 0.0
2017-May-21 04:59N 51°54' E 004°28'0 0.0
2017-May-21 04:29N 51°54' E 004°28'0 0.0
2017-May-21 03:59N 51°54' E 004°28'0 0.0
2017-May-21 03:29N 51°54' E 004°28'0 0.0
2017-May-21 02:59N 51°54' E 004°28'0 0.0
2017-May-21 02:29N 51°54' E 004°28'0 0.0
2017-May-21 01:59N 51°54' E 004°28'0 0.0
2017-May-21 01:29N 51°54' E 004°28'0 0.0
2017-May-21 00:59N 51°54' E 004°28'0 0.0
2017-May-21 00:29N 51°54' E 004°28'0 0.0
2017-May-20 23:59N 51°54' E 004°28'0 0.0
2017-May-20 23:29N 51°54' E 004°28'0 0.0
2017-May-20 22:59N 51°54' E 004°28'0 0.0
2017-May-20 22:29N 51°54' E 004°28'0 0.0
2017-May-20 21:59N 51°54' E 004°28'0 0.0
2017-May-20 21:29N 51°54' E 004°28'0 0.0
2017-May-20 20:59N 51°54' E 004°28'0 0.0
2017-May-20 20:29N 51°54' E 004°28'0 0.0
2017-May-20 19:59N 51°54' E 004°28'0 0.0
2017-May-20 19:29N 51°54' E 004°28'0 0.0
2017-May-20 18:59N 51°54' E 004°28'0 0.0
2017-May-20 18:29N 51°54' E 004°28'0 0.0
2017-May-20 17:59N 51°54' E 004°28'0 0.0
2017-May-20 17:29N 51°54' E 004°28'0 0.0
2017-May-20 16:59N 51°54' E 004°28'0 0.0
2017-May-20 16:29N 51°54' E 004°28'0 0.3
2017-May-20 16:01N 51°54' E 004°27'3 5.3
2017-May-20 15:31N 51°54' E 004°23'3 5.7
2017-May-20 15:01N 51°54' E 004°19'2 4.5
2017-May-20 14:30N 51°55' E 004°15'4 4.1
2017-May-20 13:31N 51°57' E 004°10'2 4.6
2017-May-20 13:01N 51°58' E 004°07'3 5.1
2017-May-20 12:31N 51°59' E 004°03'2 3.1
2017-May-20 12:00N 52°01' E 004°03'1 2.7
2017-May-20 11:31N 52°02' E 004°01'3 5.9
2017-May-20 11:01N 52°03' E 003°57'1 1.2
2017-May-20 10:31N 52°04' E 003°56'2 3.8
2017-May-20 10:00N 52°03' E 003°59'2 4.3
2017-May-20 09:31N 52°01' E 004°01'1 2.5
2017-May-20 09:01N 52°00' E 004°03'1 1.7
2017-May-20 08:31N 51°60' E 004°03'3 6.8
2017-May-20 08:01N 51°58' E 004°08'3 5.9
2017-May-20 07:31N 51°57' E 004°12'3 5.3
2017-May-20 07:00N 51°55' E 004°15'3 5.5
2017-May-20 06:31N 51°54' E 004°19'3 5.6
2017-May-20 06:01N 51°54' E 004°23'2 4.5
2017-May-20 05:29N 51°54' E 004°27'0 0.0
2017-May-20 04:59N 51°54' E 004°27'0 0.0
2017-May-20 04:29N 51°54' E 004°27'0 0.0
2017-May-20 03:59N 51°54' E 004°27'0 0.0
2017-May-20 03:29N 51°54' E 004°27'0 0.0
2017-May-20 02:59N 51°54' E 004°27'0 0.0
2017-May-20 02:29N 51°54' E 004°27'0 0.0
2017-May-20 01:59N 51°54' E 004°27'0 0.0
2017-May-20 01:30N 51°54' E 004°27'0 0.0
2017-May-20 01:00N 51°54' E 004°27'0 0.0
2017-May-20 00:29N 51°54' E 004°27'0 0.0
2017-May-19 23:59N 51°54' E 004°27'0 0.0
2017-May-19 23:29N 51°54' E 004°27'0 0.0
2017-May-19 22:59N 51°54' E 004°27'0 0.0
2017-May-19 22:29N 51°54' E 004°27'0 0.0
2017-May-19 21:56N 51°54' E 004°27'0 0.0
2017-May-19 21:29N 51°54' E 004°27'0 0.0
2017-May-19 20:59N 51°54' E 004°27'0 0.0
2017-May-19 20:29N 51°54' E 004°27'0 0.0
2017-May-19 19:59N 51°54' E 004°27'0 0.0
2017-May-19 19:29N 51°54' E 004°27'0 0.0
2017-May-19 18:59N 51°54' E 004°27'0 0.0
2017-May-19 18:29N 51°54' E 004°27'0 0.0
2017-May-19 17:59N 51°54' E 004°27'0 0.0
2017-May-19 17:30N 51°54' E 004°27'0 0.0
2017-May-19 16:59N 51°54' E 004°27'0 0.0
2017-May-19 16:29N 51°54' E 004°27'0 0.0
2017-May-19 15:59N 51°54' E 004°27'0 0.0
2017-May-19 15:29N 51°54' E 004°27'0 0.0
2017-May-19 14:59N 51°54' E 004°27'0 0.0
2017-May-19 13:59N 51°54' E 004°27'0 0.0
2017-May-19 13:29N 51°54' E 004°27'0 0.0
2017-May-19 13:00N 51°54' E 004°27'0 0.0
2017-May-19 12:23N 51°54' E 004°27'0 0.0
2017-May-19 11:58N 51°54' E 004°27'0 0.0
2017-May-19 11:28N 51°54' E 004°27'0 0.0
2017-May-19 10:58N 51°54' E 004°27'0 0.0
2017-May-19 10:28N 51°54' E 004°27'0 0.0
2017-May-19 10:00N 51°54' E 004°27'0 0.3
2017-May-19 09:30N 51°54' E 004°28'1 1.5
2017-May-19 09:00N 51°54' E 004°26'3 6.3
2017-May-19 08:30N 51°54' E 004°21'0 0.6
2017-May-19 08:00N 51°54' E 004°22'3 5.2
2017-May-19 07:30N 51°54' E 004°26'1 1.8
2017-May-19 06:58N 51°54' E 004°27'0 0.0
2017-May-19 06:28N 51°54' E 004°27'0 0.0
2017-May-19 05:58N 51°54' E 004°27'0 0.0
2017-May-19 05:28N 51°54' E 004°27'0 0.0
2017-May-19 04:58N 51°54' E 004°27'0 0.0
2017-May-19 04:28N 51°54' E 004°27'0 0.0
2017-May-19 03:58N 51°54' E 004°27'0 0.0
2017-May-19 03:29N 51°54' E 004°27'0 0.0
2017-May-19 02:58N 51°54' E 004°27'0 0.0
2017-May-19 02:28N 51°54' E 004°27'0 0.0
2017-May-19 01:58N 51°54' E 004°27'0 0.0
2017-May-19 01:28N 51°54' E 004°27'0 0.0
2017-May-19 00:59N 51°54' E 004°27'0 0.0
2017-May-19 00:28N 51°54' E 004°27'0 0.0
2017-May-18 23:59N 51°54' E 004°27'0 0.0
2017-May-18 23:28N 51°54' E 004°27'0 0.0
2017-May-18 22:58N 51°54' E 004°27'0 0.0
2017-May-18 22:28N 51°54' E 004°27'0 0.0
2017-May-18 21:58N 51°54' E 004°27'0 0.0
2017-May-18 21:25N 51°54' E 004°27'0 0.0
2017-May-18 20:58N 51°54' E 004°27'0 0.0
2017-May-18 20:31N 51°54' E 004°27'0 0.0
2017-May-18 19:58N 51°54' E 004°27'0 0.0
2017-May-18 19:31N 51°54' E 004°27'0 0.0
2017-May-18 19:00N 51°54' E 004°27'0 0.0
2017-May-18 18:31N 51°54' E 004°27'0 0.0
2017-May-18 18:01N 51°54' E 004°27'0 0.0
2017-May-18 17:30N 51°54' E 004°27'0 0.0
2017-May-18 17:00N 51°54' E 004°27'0 0.0
2017-May-18 16:30N 51°54' E 004°27'0 0.0
2017-May-18 16:00N 51°54' E 004°27'0 0.0
2017-May-18 15:30N 51°54' E 004°27'0 0.0
2017-May-18 15:00N 51°54' E 004°27'0 0.0
2017-May-18 14:00N 51°54' E 004°27'1 3.0
2017-May-18 13:31N 51°54' E 004°25'3 5.5
2017-May-18 13:01N 51°54' E 004°20'2 5.0
2017-May-18 12:30N 51°54' E 004°16'2 4.3
2017-May-18 12:00N 51°55' E 004°14'2 4.3
2017-May-18 11:31N 51°57' E 004°11'2 4.6
2017-May-18 11:00N 51°58' E 004°08'3 5.7
2017-May-18 10:31N 51°59' E 004°04'1 2.6
2017-May-18 10:00N 52°00' E 004°04'1 2.6
2017-May-18 09:30N 52°01' E 004°05'3 5.8
2017-May-18 09:01N 52°04' E 004°07'3 5.9
2017-May-18 08:30N 52°07' E 004°09'2 4.0
2017-May-18 08:01N 52°08' E 004°10'0 0.7
2017-May-18 07:31N 52°09' E 004°10'2 3.7
2017-May-18 07:00N 52°07' E 004°09'1 2.2
2017-May-18 06:28N 52°06' E 004°08'0 0.0
2017-May-18 05:58N 52°06' E 004°08'0 0.0
2017-May-18 05:28N 52°06' E 004°08'0 0.0
2017-May-18 04:58N 52°06' E 004°08'0 0.0
2017-May-18 04:28N 52°06' E 004°08'0 0.1
2017-May-18 03:58N 52°06' E 004°08'0 0.1
2017-May-18 03:28N 52°06' E 004°08'0 0.0
2017-May-18 02:58N 52°06' E 004°08'0 0.0
2017-May-18 02:25N 52°06' E 004°08'0 0.0
2017-May-18 01:58N 52°06' E 004°08'0 0.0
2017-May-18 01:28N 52°06' E 004°08'0 0.0
2017-May-18 00:58N 52°06' E 004°08'0 0.0
2017-May-18 00:28N 52°06' E 004°08'0 0.0
2017-May-17 23:58N 52°06' E 004°08'0 0.1
2017-May-17 23:28N 52°06' E 004°08'0 0.0
2017-May-17 22:58N 52°06' E 004°08'0 0.2
2017-May-17 22:28N 52°06' E 004°08'0 0.0
2017-May-17 22:01N 52°06' E 004°08'0 0.0
2017-May-17 21:31N 52°06' E 004°08'0 0.0
2017-May-17 21:01N 52°06' E 004°08'0 0.0
2017-May-17 20:30N 52°06' E 004°08'0 0.0
2017-May-17 20:00N 52°06' E 004°08'0 0.0
2017-May-17 19:30N 52°06' E 004°08'0 0.0
2017-May-17 19:00N 52°06' E 004°08'0 0.0
2017-May-17 18:30N 52°06' E 004°08'0 0.2
2017-May-17 18:00N 52°06' E 004°08'1 1.4
2017-May-17 17:30N 52°05' E 004°08'1 1.1
2017-May-17 17:00N 52°05' E 004°08'0 0.7
2017-May-17 16:30N 52°05' E 004°08'0 0.3
2017-May-17 16:00N 52°04' E 004°08'0 0.3
2017-May-17 15:30N 52°04' E 004°08'0 0.6
2017-May-17 15:00N 52°05' E 004°09'1 1.3
2017-May-17 14:00N 52°06' E 004°10'1 1.1
2017-May-17 13:31N 52°06' E 004°11'0 0.5
2017-May-17 13:00N 52°06' E 004°11'0 0.8
2017-May-17 12:30N 52°06' E 004°11'0 0.8
2017-May-17 12:00N 52°06' E 004°12'1 1.8
2017-May-17 11:30N 52°07' E 004°12'0 0.6
2017-May-17 11:01N 52°07' E 004°12'0 0.4
2017-May-17 10:30N 52°07' E 004°13'1 2.3
2017-May-17 10:00N 52°08' E 004°13'1 1.5
2017-May-17 09:30N 52°08' E 004°13'1 1.5
2017-May-17 09:00N 52°08' E 004°14'0 0.8
2017-May-17 08:30N 52°08' E 004°15'1 1.7
2017-May-17 08:00N 52°08' E 004°16'1 1.9
2017-May-17 07:30N 52°07' E 004°15'1 1.8
2017-May-17 07:00N 52°08' E 004°16'2 3.1
2017-May-17 06:30N 52°07' E 004°14'0 1.0
2017-May-17 06:00N 52°08' E 004°14'1 1.8
2017-May-17 05:30N 52°07' E 004°15'1 2.0
2017-May-17 05:00N 52°08' E 004°14'1 1.6
2017-May-17 04:30N 52°07' E 004°15'1 2.0
2017-May-17 04:00N 52°07' E 004°13'2 3.4
2017-May-17 03:30N 52°06' E 004°11'2 3.2
2017-May-17 03:00N 52°05' E 004°10'1 2.8
2017-May-17 02:30N 52°04' E 004°08'1 2.2
2017-May-17 02:00N 52°03' E 004°07'1 1.9
2017-May-17 01:30N 52°02' E 004°06'1 1.7
2017-May-17 01:01N 52°01' E 004°05'2 4.5
2017-May-17 00:30N 52°03' E 004°08'2 4.5
2017-May-17 00:00N 52°05' E 004°10'2 4.3
2017-May-16 23:30N 52°06' E 004°12'2 2.9
2017-May-16 22:59N 52°07' E 004°14'1 2.4
2017-May-16 22:31N 52°06' E 004°15'1 1.4
2017-May-16 21:58N 52°06' E 004°16'0 0.0
2017-May-16 21:25N 52°06' E 004°16'0 0.0
2017-May-16 20:59N 52°06' E 004°16'0 0.0
2017-May-16 20:29N 52°06' E 004°16'0 0.0
2017-May-16 19:59N 52°06' E 004°16'0 0.0
2017-May-16 19:26N 52°06' E 004°16'0 0.0
2017-May-16 18:56N 52°06' E 004°16'0 0.0
2017-May-16 18:29N 52°06' E 004°16'0 0.0
2017-May-16 17:56N 52°06' E 004°16'0 0.0
2017-May-16 17:29N 52°06' E 004°16'0 0.0
2017-May-16 16:58N 52°06' E 004°16'0 0.0
2017-May-16 16:29N 52°06' E 004°16'0 0.0
2017-May-16 15:59N 52°06' E 004°16'0 0.0
2017-May-16 15:29N 52°06' E 004°16'1 1.3
2017-May-16 15:00N 52°06' E 004°15'2 3.2
2017-May-16 14:30N 52°08' E 004°14'1 0.5
2017-May-16 13:30N 52°07' E 004°14'0 0.4
2017-May-16 13:00N 52°07' E 004°15'0 0.5
2017-May-16 12:30N 52°07' E 004°15'0 0.1
2017-May-16 12:01N 52°07' E 004°15'1 2.3
2017-May-16 11:30N 52°08' E 004°13'1 2.5
2017-May-16 11:00N 52°06' E 004°12'1 2.6
2017-May-16 10:30N 52°05' E 004°11'0 0.9
2017-May-16 10:00N 52°05' E 004°10'2 3.2
2017-May-16 09:30N 52°06' E 004°08'2 5.0
2017-May-16 09:00N 52°06' E 004°04'3 5.8
2017-May-16 08:30N 52°06' E 003°59'3 6.1
2017-May-16 08:00N 52°06' E 003°54'3 5.5
2017-May-16 07:30N 52°06' E 003°50'3 5.7
2017-May-16 07:00N 52°07' E 003°45'2 4.9
2017-May-16 06:30N 52°07' E 003°41'2 4.9
2017-May-16 06:00N 52°08' E 003°38'3 4.8
2017-May-16 05:28N 52°09' E 003°34'2 5.0
2017-May-16 04:58N 52°09' E 003°30'2 4.5
2017-May-16 04:30N 52°10' E 003°26'6 5.7
2017-May-16 03:26N 52°11' E 003°17'6 7.0
2017-May-16 02:30N 52°13' E 003°07'4 7.0
2017-May-16 01:59N 52°13' E 003°01'3 6.4
2017-May-16 01:29N 52°14' E 002°56'4 7.1
2017-May-16 00:55N 52°15' E 002°49'4 8.2
2017-May-16 00:26N 52°16' E 002°43'6 8.3
2017-May-15 23:44N 52°17' E 002°34'33 4.1
2017-May-15 15:45N 52°09' E 003°26'1 4.2
2017-May-15 15:30N 52°09' E 003°27'2 4.0
2017-May-15 15:00N 52°08' E 003°30'3 3.1
2017-May-15 14:00N 52°07' E 003°35'3 5.7
2017-May-15 13:30N 52°06' E 003°39'3 6.0
2017-May-15 13:00N 52°06' E 003°44'3 6.6
2017-May-15 12:30N 52°06' E 003°50'3 6.8
2017-May-15 12:00N 52°06' E 003°55'3 6.6
2017-May-15 11:30N 52°06' E 004°00'3 6.2
2017-May-15 11:00N 52°06' E 004°05'2 4.1
2017-May-15 10:30N 52°04' E 004°04'3 6.3
2017-May-15 10:00N 52°01' E 004°02'3 6.2
2017-May-15 09:30N 51°59' E 004°06'4 7.8
2017-May-15 09:00N 51°57' E 004°11'4 8.6
2017-May-15 08:30N 51°54' E 004°16'3 6.8
2017-May-15 08:00N 51°54' E 004°22'3 6.0
2017-May-15 07:30N 51°54' E 004°27'1 1.2
2017-May-15 06:59N 51°54' E 004°28'0 0.0
2017-May-15 06:29N 51°54' E 004°28'0 0.0
2017-May-15 05:58N 51°54' E 004°28'0 0.0
2017-May-15 05:29N 51°54' E 004°28'0 0.0
2017-May-15 04:58N 51°54' E 004°28'0 0.0
2017-May-15 04:28N 51°54' E 004°28'0 0.0
2017-May-15 03:58N 51°54' E 004°28'0 0.0
2017-May-15 03:28N 51°54' E 004°28'0 0.0
2017-May-15 02:58N 51°54' E 004°28'0 0.0
2017-May-15 02:28N 51°54' E 004°28'0 0.0
2017-May-15 01:58N 51°54' E 004°28'0 0.0
2017-May-15 01:28N 51°54' E 004°28'0 0.0
2017-May-15 00:58N 51°54' E 004°28'0 0.0
2017-May-15 00:28N 51°54' E 004°28'0 0.0
2017-May-14 23:58N 51°54' E 004°28'0 0.0
2017-May-14 23:28N 51°54' E 004°28'0 0.0
2017-May-14 22:58N 51°54' E 004°28'0 0.0
2017-May-14 22:28N 51°54' E 004°28'0 0.0
2017-May-14 21:58N 51°54' E 004°28'0 0.0
2017-May-14 21:28N 51°54' E 004°28'0 0.0
2017-May-14 20:58N 51°54' E 004°28'0 0.0
2017-May-14 20:28N 51°54' E 004°28'0 0.0
2017-May-14 19:59N 51°54' E 004°28'0 0.0
2017-May-14 19:28N 51°54' E 004°28'0 0.0
2017-May-14 18:58N 51°54' E 004°28'1 1.8
2017-May-14 18:29N 51°54' E 004°29'0 0.0
2017-May-14 17:59N 51°54' E 004°29'0 0.0
2017-May-14 17:30N 51°54' E 004°29'0 0.0
2017-May-14 16:59N 51°54' E 004°29'0 0.0
2017-May-14 16:31N 51°54' E 004°29'2 3.6
2017-May-14 16:01N 51°54' E 004°26'4 7.9
2017-May-14 15:30N 51°54' E 004°20'4 8.5
2017-May-14 15:01N 51°55' E 004°14'4 7.6
2017-May-14 14:30N 51°58' E 004°09'5 5.4
2017-May-14 13:31N 52°01' E 004°01'2 3.2
2017-May-14 13:01N 52°02' E 004°00'4 8.0
2017-May-14 12:30N 52°05' E 003°55'2 4.1
2017-May-14 12:01N 52°03' E 003°58'3 6.1
2017-May-14 11:30N 52°01' E 004°01'1 1.3
2017-May-14 11:00N 52°01' E 004°02'3 6.1
2017-May-14 10:31N 51°59' E 004°06'4 7.7
2017-May-14 10:00N 51°57' E 004°11'4 8.0
2017-May-14 09:31N 51°54' E 004°16'3 6.5
2017-May-14 09:00N 51°54' E 004°22'3 6.6
2017-May-14 08:31N 51°54' E 004°27'1 2.5
2017-May-14 07:58N 51°54' E 004°29'0 0.0
2017-May-14 07:28N 51°54' E 004°29'0 0.0
2017-May-14 06:58N 51°54' E 004°29'0 0.0
2017-May-14 06:28N 51°54' E 004°29'0 0.0
2017-May-14 05:58N 51°54' E 004°29'0 0.0
2017-May-14 05:28N 51°54' E 004°29'0 0.0
2017-May-14 04:58N 51°54' E 004°29'0 0.0
2017-May-14 04:28N 51°54' E 004°29'0 0.0
2017-May-14 03:55N 51°54' E 004°29'0 0.0
2017-May-14 03:28N 51°54' E 004°29'0 0.0
2017-May-14 02:58N 51°54' E 004°29'0 0.0
2017-May-14 02:28N 51°54' E 004°29'0 0.2
2017-May-14 01:58N 51°54' E 004°29'0 0.2
2017-May-14 01:28N 51°54' E 004°29'0 0.0
2017-May-14 00:58N 51°54' E 004°29'0 0.0
2017-May-14 00:28N 51°54' E 004°29'0 0.0
2017-May-13 23:58N 51°54' E 004°29'0 0.0
2017-May-13 23:28N 51°54' E 004°29'0 0.0
2017-May-13 22:58N 51°54' E 004°29'0 0.0
2017-May-13 22:28N 51°54' E 004°29'0 0.0
2017-May-13 21:58N 51°54' E 004°29'0 0.0
2017-May-13 21:28N 51°54' E 004°29'0 0.0
2017-May-13 21:01N 51°54' E 004°29'0 0.0
2017-May-13 20:31N 51°54' E 004°29'0 0.0
2017-May-13 20:00N 51°54' E 004°29'0 0.0
2017-May-13 19:31N 51°54' E 004°29'0 0.0
2017-May-13 19:00N 51°54' E 004°29'0 0.0
2017-May-13 18:30N 51°54' E 004°29'0 0.0
2017-May-13 18:00N 51°54' E 004°29'0 0.0
2017-May-13 17:30N 51°54' E 004°29'0 0.0
2017-May-13 17:00N 51°54' E 004°29'2 3.5
2017-May-13 16:30N 51°54' E 004°26'4 8.4
2017-May-13 16:01N 51°54' E 004°19'5 9.2
2017-May-13 15:30N 51°56' E 004°13'5 9.2
2017-May-13 15:00N 51°59' E 004°07'3 6.8
2017-May-13 14:30N 52°00' E 004°02'4 4.0
2017-May-13 13:30N 52°03' E 003°58'2 3.9
2017-May-13 13:00N 52°04' E 003°55'1 1.0
2017-May-13 12:30N 52°05' E 003°55'3 5.3
2017-May-13 12:00N 52°03' E 003°58'2 4.9
2017-May-13 11:30N 52°02' E 004°01'1 2.0
2017-May-13 11:00N 52°01' E 004°03'3 5.0
2017-May-13 10:30N 51°59' E 004°05'4 8.0
2017-May-13 10:00N 51°57' E 004°10'4 8.2
2017-May-13 09:30N 51°55' E 004°15'3 6.9
2017-May-13 09:00N 51°54' E 004°21'  
Track history (hours):
 
Tides and Currents Weather Stations Pressure Air Temp Water Temp Dewpoint Dewpoint Depression Visibility Wind Speed Wind Dir Waves Ship Positions

Eendracht (Netherlands)

Last reported at 2017-May-23 08:55 UTC. Time now 2017-May-23 09:00 UTC.
Position N 51°49' E 003°17'.

Length 59 m; beam 12 m; draft 5 m.

Type: Sailing vessel. MMSI: 244543000.

Date/timePositionNaut miles runAvg speedWind from/ knotsBaromVisibWave heightAir tempDewpointWater temp
2017-May-23 08:55N 51°49' E 003°17'2 5.5
2017-May-23 08:30N 51°48' E 003°15'3 5.9
2017-May-23 08:00N 51°46' E 003°11'2 3.9
2017-May-23 07:30N 51°44' E 003°09'1 2.8
2017-May-23 07:00N 51°43' E 003°09'1 3.0
2017-May-23 06:29N 51°42' E 003°11'2 2.5
2017-May-23 05:51N 51°41' E 003°13'1 3.8
2017-May-23 05:30N 51°40' E 003°15'1 2.3
2017-May-23 05:00N 51°39' E 003°14'2 3.8
2017-May-23 04:30N 51°39' E 003°11'1 2.1
2017-May-23 04:01N 51°40' E 003°12'2 3.5
2017-May-23 03:30N 51°42' E 003°13'2 3.6
2017-May-23 03:00N 51°42' E 003°16'2 4.2
2017-May-23 02:30N 51°40' E 003°14'1 1.0
2017-May-23 02:00N 51°40' E 003°13'1 1.9
2017-May-23 01:30N 51°40' E 003°15'1 2.0
2017-May-23 01:00N 51°41' E 003°16'1 1.5
2017-May-23 00:29N 51°41' E 003°15'1 3.1
2017-May-23 00:00N 51°41' E 003°13'1 2.7
2017-May-22 23:30N 51°40' E 003°14'1 2.5
2017-May-22 23:00N 51°39' E 003°15'2 3.0
2017-May-22 22:23N 51°38' E 003°17'2 3.8
2017-May-22 21:46N 51°38' E 003°21'1 5.1
2017-May-22 21:30N 51°37' E 003°23'3 5.6
2017-May-22 21:00N 51°34' E 003°25'3 5.6
2017-May-22 20:30N 51°32' E 003°26'2 4.8
2017-May-22 20:00N 51°30' E 003°28'2 4.7
2017-May-22 19:30N 51°28' E 003°31'2 4.5
2017-May-22 19:00N 51°27' E 003°34'2 3.0
2017-May-22 18:30N 51°26' E 003°36'1 1.4
2017-May-22 18:00N 51°27' E 003°35'0 0.2
2017-May-22 17:28N 51°27' E 003°35'0 0.0
2017-May-22 16:58N 51°27' E 003°35'0 0.0
2017-May-22 16:22N 51°27' E 003°35'0 0.0
2017-May-22 15:55N 51°27' E 003°35'0 0.0
2017-May-22 15:28N 51°27' E 003°35'0 0.0
2017-May-22 14:58N 51°27' E 003°35'0 0.0
2017-May-22 13:58N 51°27' E 003°35'0 0.0
2017-May-22 13:28N 51°27' E 003°35'0 0.0
2017-May-22 12:58N 51°27' E 003°35'0 0.0
2017-May-22 12:07N 51°27' E 003°35'0 0.0
2017-May-22 11:58N 51°27' E 003°35'1 1.1
2017-May-22 11:30N 51°27' E 003°36'0 0.4
2017-May-22 11:00N 51°26' E 003°36'2 4.2
2017-May-22 10:30N 51°27' E 003°33'3 5.5
2017-May-22 10:00N 51°29' E 003°30'3 5.7
2017-May-22 09:30N 51°31' E 003°26'3 6.3
2017-May-22 09:00N 51°34' E 003°25'4 7.1
2017-May-22 08:26N 51°37' E 003°21'2 4.8
2017-May-22 08:00N 51°39' E 003°24'1 1.1
2017-May-22 07:30N 51°39' E 003°24'1 1.1
2017-May-22 07:00N 51°39' E 003°23'2 3.1
2017-May-22 06:30N 51°38' E 003°22'1 2.5
2017-May-22 06:01N 51°37' E 003°21'2 3.4
2017-May-22 05:31N 51°35' E 003°20'2 4.0
2017-May-22 05:00N 51°34' E 003°18'1 1.9
2017-May-22 04:30N 51°33' E 003°17'3 5.6
2017-May-22 04:00N 51°35' E 003°19'3 5.3
2017-May-22 03:30N 51°38' E 003°19'2 4.1
2017-May-22 02:56N 51°40' E 003°20'2 4.1
2017-May-22 02:30N 51°42' E 003°21'2 4.2
2017-May-22 02:00N 51°44' E 003°22'2 3.9
2017-May-22 01:30N 51°46' E 003°24'1 1.8
2017-May-22 01:00N 51°46' E 003°25'2 4.9
2017-May-22 00:30N 51°44' E 003°27'1 1.9
2017-May-22 00:01N 51°43' E 003°27'1 2.3
2017-May-21 23:30N 51°44' E 003°28'1 3.0
2017-May-21 23:00N 51°46' E 003°29'2 3.7
2017-May-21 22:30N 51°48' E 003°30'2 3.8
2017-May-21 22:00N 51°49' E 003°31'2 3.6
2017-May-21 21:31N 51°51' E 003°32'2 3.3
2017-May-21 21:00N 51°53' E 003°33'1 1.4
2017-May-21 20:30N 51°53' E 003°34'2 3.3
2017-May-21 20:00N 51°53' E 003°36'2 4.4
2017-May-21 19:30N 51°54' E 003°40'3 5.2
2017-May-21 19:00N 51°55' E 003°44'3 5.3
2017-May-21 18:30N 51°56' E 003°48'2 4.5
2017-May-21 18:01N 51°56' E 003°51'2 3.5
2017-May-21 17:30N 51°57' E 003°54'3 6.6
2017-May-21 17:00N 51°59' E 003°58'4 7.7
2017-May-21 16:31N 52°01' E 004°03'1 2.6
2017-May-21 16:01N 52°01' E 004°05'1 1.2
2017-May-21 15:31N 52°01' E 004°05'1 1.2
2017-May-21 15:00N 52°01' E 004°06'0 0.4
2017-May-21 14:30N 52°01' E 004°06'1 0.5
2017-May-21 13:30N 52°02' E 004°06'0 0.3
2017-May-21 13:01N 52°02' E 004°06'0 0.6
2017-May-21 12:31N 52°02' E 004°06'1 2.4
2017-May-21 12:01N 52°01' E 004°07'0 0.4
2017-May-21 11:30N 52°02' E 004°07'1 1.1
2017-May-21 11:01N 52°02' E 004°06'1 1.7
2017-May-21 10:30N 52°01' E 004°06'1 1.2
2017-May-21 10:00N 52°00' E 004°06'2 4.3
2017-May-21 09:30N 51°60' E 004°03'3 5.6
2017-May-21 09:00N 51°59' E 004°07'2 4.3
2017-May-21 08:30N 51°57' E 004°10'2 4.6
2017-May-21 08:00N 51°56' E 004°13'3 5.5
2017-May-21 07:30N 51°54' E 004°16'3 5.4
2017-May-21 07:00N 51°54' E 004°21'3 6.0
2017-May-21 06:30N 51°54' E 004°26'1 2.6
2017-May-21 06:00N 51°54' E 004°28'0 0.0
2017-May-21 05:29N 51°54' E 004°28'0 0.0
2017-May-21 04:59N 51°54' E 004°28'0 0.0
2017-May-21 04:29N 51°54' E 004°28'0 0.0
2017-May-21 03:59N 51°54' E 004°28'0 0.0
2017-May-21 03:29N 51°54' E 004°28'0 0.0
2017-May-21 02:59N 51°54' E 004°28'0 0.0
2017-May-21 02:29N 51°54' E 004°28'0 0.0
2017-May-21 01:59N 51°54' E 004°28'0 0.0
2017-May-21 01:29N 51°54' E 004°28'0 0.0
2017-May-21 00:59N 51°54' E 004°28'0 0.0
2017-May-21 00:29N 51°54' E 004°28'0 0.0
2017-May-20 23:59N 51°54' E 004°28'0 0.0
2017-May-20 23:29N 51°54' E 004°28'0 0.0
2017-May-20 22:59N 51°54' E 004°28'0 0.0
2017-May-20 22:29N 51°54' E 004°28'0 0.0
2017-May-20 21:59N 51°54' E 004°28'0 0.0
2017-May-20 21:29N 51°54' E 004°28'0 0.0
2017-May-20 20:59N 51°54' E 004°28'0 0.0
2017-May-20 20:29N 51°54' E 004°28'0 0.0
2017-May-20 19:59N 51°54' E 004°28'0 0.0
2017-May-20 19:29N 51°54' E 004°28'0 0.0
2017-May-20 18:59N 51°54' E 004°28'0 0.0
2017-May-20 18:29N 51°54' E 004°28'0 0.0
2017-May-20 17:59N 51°54' E 004°28'0 0.0
2017-May-20 17:29N 51°54' E 004°28'0 0.0
2017-May-20 16:59N 51°54' E 004°28'0 0.0
2017-May-20 16:29N 51°54' E 004°28'0 0.3
2017-May-20 16:01N 51°54' E 004°27'3 5.3
2017-May-20 15:31N 51°54' E 004°23'3 5.7
2017-May-20 15:01N 51°54' E 004°19'2 4.5
2017-May-20 14:30N 51°55' E 004°15'4 4.1
2017-May-20 13:31N 51°57' E 004°10'2 4.6
2017-May-20 13:01N 51°58' E 004°07'3 5.1
2017-May-20 12:31N 51°59' E 004°03'2 3.1
2017-May-20 12:00N 52°01' E 004°03'1 2.7
2017-May-20 11:31N 52°02' E 004°01'3 5.9
2017-May-20 11:01N 52°03' E 003°57'1 1.2
2017-May-20 10:31N 52°04' E 003°56'2 3.8
2017-May-20 10:00N 52°03' E 003°59'2 4.3
2017-May-20 09:31N 52°01' E 004°01'1 2.5
2017-May-20 09:01N 52°00' E 004°03'1 1.7
2017-May-20 08:31N 51°60' E 004°03'3 6.8
2017-May-20 08:01N 51°58' E 004°08'3 5.9
2017-May-20 07:31N 51°57' E 004°12'3 5.3
2017-May-20 07:00N 51°55' E 004°15'3 5.5
2017-May-20 06:31N 51°54' E 004°19'3 5.6
2017-May-20 06:01N 51°54' E 004°23'2 4.5
2017-May-20 05:29N 51°54' E 004°27'0 0.0
2017-May-20 04:59N 51°54' E 004°27'0 0.0
2017-May-20 04:29N 51°54' E 004°27'0 0.0
2017-May-20 03:59N 51°54' E 004°27'0 0.0
2017-May-20 03:29N 51°54' E 004°27'0 0.0
2017-May-20 02:59N 51°54' E 004°27'0 0.0
2017-May-20 02:29N 51°54' E 004°27'0 0.0
2017-May-20 01:59N 51°54' E 004°27'0 0.0
2017-May-20 01:30N 51°54' E 004°27'0 0.0
2017-May-20 01:00N 51°54' E 004°27'0 0.0
2017-May-20 00:29N 51°54' E 004°27'0 0.0
2017-May-19 23:59N 51°54' E 004°27'0 0.0
2017-May-19 23:29N 51°54' E 004°27'0 0.0
2017-May-19 22:59N 51°54' E 004°27'0 0.0
2017-May-19 22:29N 51°54' E 004°27'0 0.0
2017-May-19 21:56N 51°54' E 004°27'0 0.0
2017-May-19 21:29N 51°54' E 004°27'0 0.0
2017-May-19 20:59N 51°54' E 004°27'0 0.0
2017-May-19 20:29N 51°54' E 004°27'0 0.0
2017-May-19 19:59N 51°54' E 004°27'0 0.0
2017-May-19 19:29N 51°54' E 004°27'0 0.0
2017-May-19 18:59N 51°54' E 004°27'0 0.0
2017-May-19 18:29N 51°54' E 004°27'0 0.0
2017-May-19 17:59N 51°54' E 004°27'0 0.0
2017-May-19 17:30N 51°54' E 004°27'0 0.0
2017-May-19 16:59N 51°54' E 004°27'0 0.0
2017-May-19 16:29N 51°54' E 004°27'0 0.0
2017-May-19 15:59N 51°54' E 004°27'0 0.0
2017-May-19 15:29N 51°54' E 004°27'0 0.0
2017-May-19 14:59N 51°54' E 004°27'0 0.0
2017-May-19 13:59N 51°54' E 004°27'0 0.0
2017-May-19 13:29N 51°54' E 004°27'0 0.0
2017-May-19 13:00N 51°54' E 004°27'0 0.0
2017-May-19 12:23N 51°54' E 004°27'0 0.0
2017-May-19 11:58N 51°54' E 004°27'0 0.0
2017-May-19 11:28N 51°54' E 004°27'0 0.0
2017-May-19 10:58N 51°54' E 004°27'0 0.0
2017-May-19 10:28N 51°54' E 004°27'0 0.0
2017-May-19 10:00N 51°54' E 004°27'0 0.3
2017-May-19 09:30N 51°54' E 004°28'1 1.5
2017-May-19 09:00N 51°54' E 004°26'3 6.3
2017-May-19 08:30N 51°54' E 004°21'0 0.6
2017-May-19 08:00N 51°54' E 004°22'3 5.2
2017-May-19 07:30N 51°54' E 004°26'1 1.8
2017-May-19 06:58N 51°54' E 004°27'0 0.0
2017-May-19 06:28N 51°54' E 004°27'0 0.0
2017-May-19 05:58N 51°54' E 004°27'0 0.0
2017-May-19 05:28N 51°54' E 004°27'0 0.0
2017-May-19 04:58N 51°54' E 004°27'0 0.0
2017-May-19 04:28N 51°54' E 004°27'0 0.0
2017-May-19 03:58N 51°54' E 004°27'0 0.0
2017-May-19 03:29N 51°54' E 004°27'0 0.0
2017-May-19 02:58N 51°54' E 004°27'0 0.0
2017-May-19 02:28N 51°54' E 004°27'0 0.0
2017-May-19 01:58N 51°54' E 004°27'0 0.0
2017-May-19 01:28N 51°54' E 004°27'0 0.0
2017-May-19 00:59N 51°54' E 004°27'0 0.0
2017-May-19 00:28N 51°54' E 004°27'0 0.0
2017-May-18 23:59N 51°54' E 004°27'0 0.0
2017-May-18 23:28N 51°54' E 004°27'0 0.0
2017-May-18 22:58N 51°54' E 004°27'0 0.0
2017-May-18 22:28N 51°54' E 004°27'0 0.0
2017-May-18 21:58N 51°54' E 004°27'0 0.0
2017-May-18 21:25N 51°54' E 004°27'0 0.0
2017-May-18 20:58N 51°54' E 004°27'0 0.0
2017-May-18 20:31N 51°54' E 004°27'0 0.0
2017-May-18 19:58N 51°54' E 004°27'0 0.0
2017-May-18 19:31N 51°54' E 004°27'0 0.0
2017-May-18 19:00N 51°54' E 004°27'0 0.0
2017-May-18 18:31N 51°54' E 004°27'0 0.0
2017-May-18 18:01N 51°54' E 004°27'0 0.0
2017-May-18 17:30N 51°54' E 004°27'0 0.0
2017-May-18 17:00N 51°54' E 004°27'0 0.0
2017-May-18 16:30N 51°54' E 004°27'0 0.0
2017-May-18 16:00N 51°54' E 004°27'0 0.0
2017-May-18 15:30N 51°54' E 004°27'0 0.0
2017-May-18 15:00N 51°54' E 004°27'0 0.0
2017-May-18 14:00N 51°54' E 004°27'1 3.0
2017-May-18 13:31N 51°54' E 004°25'3 5.5
2017-May-18 13:01N 51°54' E 004°20'2 5.0
2017-May-18 12:30N 51°54' E 004°16'2 4.3
2017-May-18 12:00N 51°55' E 004°14'2 4.3
2017-May-18 11:31N 51°57' E 004°11'2 4.6
2017-May-18 11:00N 51°58' E 004°08'3 5.7
2017-May-18 10:31N 51°59' E 004°04'1 2.6
2017-May-18 10:00N 52°00' E 004°04'1 2.6
2017-May-18 09:30N 52°01' E 004°05'3 5.8
2017-May-18 09:01N 52°04' E 004°07'3 5.9
2017-May-18 08:30N 52°07' E 004°09'2 4.0
2017-May-18 08:01N 52°08' E 004°10'0 0.7
2017-May-18 07:31N 52°09' E 004°10'2 3.7
2017-May-18 07:00N 52°07' E 004°09'1 2.2
2017-May-18 06:28N 52°06' E 004°08'0 0.0
2017-May-18 05:58N 52°06' E 004°08'0 0.0
2017-May-18 05:28N 52°06' E 004°08'0 0.0
2017-May-18 04:58N 52°06' E 004°08'0 0.0
2017-May-18 04:28N 52°06' E 004°08'0 0.1
2017-May-18 03:58N 52°06' E 004°08'0 0.1
2017-May-18 03:28N 52°06' E 004°08'0 0.0
2017-May-18 02:58N 52°06' E 004°08'0 0.0
2017-May-18 02:25N 52°06' E 004°08'0 0.0
2017-May-18 01:58N 52°06' E 004°08'0 0.0
2017-May-18 01:28N 52°06' E 004°08'0 0.0
2017-May-18 00:58N 52°06' E 004°08'0 0.0
2017-May-18 00:28N 52°06' E 004°08'0 0.0
2017-May-17 23:58N 52°06' E 004°08'0 0.1
2017-May-17 23:28N 52°06' E 004°08'0 0.0
2017-May-17 22:58N 52°06' E 004°08'0 0.2
2017-May-17 22:28N 52°06' E 004°08'0 0.0
2017-May-17 22:01N 52°06' E 004°08'0 0.0
2017-May-17 21:31N 52°06' E 004°08'0 0.0
2017-May-17 21:01N 52°06' E 004°08'0 0.0
2017-May-17 20:30N 52°06' E 004°08'0 0.0
2017-May-17 20:00N 52°06' E 004°08'0 0.0
2017-May-17 19:30N 52°06' E 004°08'0 0.0
2017-May-17 19:00N 52°06' E 004°08'0 0.0
2017-May-17 18:30N 52°06' E 004°08'0 0.2
2017-May-17 18:00N 52°06' E 004°08'1 1.4
2017-May-17 17:30N 52°05' E 004°08'1 1.1
2017-May-17 17:00N 52°05' E 004°08'0 0.7
2017-May-17 16:30N 52°05' E 004°08'0 0.3
2017-May-17 16:00N 52°04' E 004°08'0 0.3
2017-May-17 15:30N 52°04' E 004°08'0 0.6
2017-May-17 15:00N 52°05' E 004°09'1 1.3
2017-May-17 14:00N 52°06' E 004°10'1 1.1
2017-May-17 13:31N 52°06' E 004°11'0 0.5
2017-May-17 13:00N 52°06' E 004°11'0 0.8
2017-May-17 12:30N 52°06' E 004°11'0 0.8
2017-May-17 12:00N 52°06' E 004°12'1 1.8
2017-May-17 11:30N 52°07' E 004°12'0 0.6
2017-May-17 11:01N 52°07' E 004°12'0 0.4
2017-May-17 10:30N 52°07' E 004°13'1 2.3
2017-May-17 10:00N 52°08' E 004°13'1 1.5
2017-May-17 09:30N 52°08' E 004°13'1 1.5
2017-May-17 09:00N 52°08' E 004°14'0 0.8
2017-May-17 08:30N 52°08' E 004°15'1 1.7
2017-May-17 08:00N 52°08' E 004°16'1 1.9
2017-May-17 07:30N 52°07' E 004°15'1 1.8
2017-May-17 07:00N 52°08' E 004°16'2 3.1
2017-May-17 06:30N 52°07' E 004°14'0 1.0
2017-May-17 06:00N 52°08' E 004°14'1 1.8
2017-May-17 05:30N 52°07' E 004°15'1 2.0
2017-May-17 05:00N 52°08' E 004°14'1 1.6
2017-May-17 04:30N 52°07' E 004°15'1 2.0
2017-May-17 04:00N 52°07' E 004°13'2 3.4
2017-May-17 03:30N 52°06' E 004°11'2 3.2
2017-May-17 03:00N 52°05' E 004°10'1 2.8
2017-May-17 02:30N 52°04' E 004°08'1 2.2
2017-May-17 02:00N 52°03' E 004°07'1 1.9
2017-May-17 01:30N 52°02' E 004°06'1 1.7
2017-May-17 01:01N 52°01' E 004°05'2 4.5
2017-May-17 00:30N 52°03' E 004°08'2 4.5
2017-May-17 00:00N 52°05' E 004°10'2 4.3
2017-May-16 23:30N 52°06' E 004°12'2 2.9
2017-May-16 22:59N 52°07' E 004°14'1 2.4
2017-May-16 22:31N 52°06' E 004°15'1 1.4
2017-May-16 21:58N 52°06' E 004°16'0 0.0
2017-May-16 21:25N 52°06' E 004°16'0 0.0
2017-May-16 20:59N 52°06' E 004°16'0 0.0
2017-May-16 20:29N 52°06' E 004°16'0 0.0
2017-May-16 19:59N 52°06' E 004°16'0 0.0
2017-May-16 19:26N 52°06' E 004°16'0 0.0
2017-May-16 18:56N 52°06' E 004°16'0 0.0
2017-May-16 18:29N 52°06' E 004°16'0 0.0
2017-May-16 17:56N 52°06' E 004°16'0 0.0
2017-May-16 17:29N 52°06' E 004°16'0 0.0
2017-May-16 16:58N 52°06' E 004°16'0 0.0
2017-May-16 16:29N 52°06' E 004°16'0 0.0
2017-May-16 15:59N 52°06' E 004°16'0 0.0
2017-May-16 15:29N 52°06' E 004°16'1 1.3
2017-May-16 15:00N 52°06' E 004°15'2 3.2
2017-May-16 14:30N 52°08' E 004°14'1 0.5
2017-May-16 13:30N 52°07' E 004°14'0 0.4
2017-May-16 13:00N 52°07' E 004°15'0 0.5
2017-May-16 12:30N 52°07' E 004°15'0 0.1
2017-May-16 12:01N 52°07' E 004°15'1 2.3
2017-May-16 11:30N 52°08' E 004°13'1 2.5
2017-May-16 11:00N 52°06' E 004°12'1 2.6
2017-May-16 10:30N 52°05' E 004°11'0 0.9
2017-May-16 10:00N 52°05' E 004°10'2 3.2
2017-May-16 09:30N 52°06' E 004°08'2 5.0
2017-May-16 09:00N 52°06' E 004°04'3 5.8
2017-May-16 08:30N 52°06' E 003°59'3 6.1
2017-May-16 08:00N 52°06' E 003°54'3 5.5
2017-May-16 07:30N 52°06' E 003°50'3 5.7
2017-May-16 07:00N 52°07' E 003°45'2 4.9
2017-May-16 06:30N 52°07' E 003°41'2 4.9
2017-May-16 06:00N 52°08' E 003°38'3 4.8
2017-May-16 05:28N 52°09' E 003°34'2 5.0
2017-May-16 04:58N 52°09' E 003°30'2 4.5
2017-May-16 04:30N 52°10' E 003°26'6 5.7
2017-May-16 03:26N 52°11' E 003°17'6 7.0
2017-May-16 02:30N 52°13' E 003°07'4 7.0
2017-May-16 01:59N 52°13' E 003°01'3 6.4
2017-May-16 01:29N 52°14' E 002°56'4 7.1
2017-May-16 00:55N 52°15' E 002°49'4 8.2
2017-May-16 00:26N 52°16' E 002°43'6 8.3
2017-May-15 23:44N 52°17' E 002°34'33 4.1
2017-May-15 15:45N 52°09' E 003°26'1 4.2
2017-May-15 15:30N 52°09' E 003°27'2 4.0
2017-May-15 15:00N 52°08' E 003°30'3 3.1
2017-May-15 14:00N 52°07' E 003°35'3 5.7
2017-May-15 13:30N 52°06' E 003°39'3 6.0
2017-May-15 13:00N 52°06' E 003°44'3 6.6
2017-May-15 12:30N 52°06' E 003°50'3 6.8
2017-May-15 12:00N 52°06' E 003°55'3 6.6
2017-May-15 11:30N 52°06' E 004°00'3 6.2
2017-May-15 11:00N 52°06' E 004°05'2 4.1
2017-May-15 10:30N 52°04' E 004°04'3 6.3
2017-May-15 10:00N 52°01' E 004°02'3 6.2
2017-May-15 09:30N 51°59' E 004°06'4 7.8
2017-May-15 09:00N 51°57' E 004°11'4 8.6
2017-May-15 08:30N 51°54' E 004°16'3 6.8
2017-May-15 08:00N 51°54' E 004°22'3 6.0
2017-May-15 07:30N 51°54' E 004°27'1 1.2
2017-May-15 06:59N 51°54' E 004°28'0 0.0
2017-May-15 06:29N 51°54' E 004°28'0 0.0
2017-May-15 05:58N 51°54' E 004°28'0 0.0
2017-May-15 05:29N 51°54' E 004°28'0 0.0
2017-May-15 04:58N 51°54' E 004°28'0 0.0
2017-May-15 04:28N 51°54' E 004°28'0 0.0
2017-May-15 03:58N 51°54' E 004°28'0 0.0
2017-May-15 03:28N 51°54' E 004°28'0 0.0
2017-May-15 02:58N 51°54' E 004°28'0 0.0
2017-May-15 02:28N 51°54' E 004°28'0 0.0
2017-May-15 01:58N 51°54' E 004°28'0 0.0
2017-May-15 01:28N 51°54' E 004°28'0 0.0
2017-May-15 00:58N 51°54' E 004°28'0 0.0
2017-May-15 00:28N 51°54' E 004°28'0 0.0
2017-May-14 23:58N 51°54' E 004°28'0 0.0
2017-May-14 23:28N 51°54' E 004°28'0 0.0
2017-May-14 22:58N 51°54' E 004°28'0 0.0
2017-May-14 22:28N 51°54' E 004°28'0 0.0
2017-May-14 21:58N 51°54' E 004°28'0 0.0
2017-May-14 21:28N 51°54' E 004°28'0 0.0
2017-May-14 20:58N 51°54' E 004°28'0 0.0
2017-May-14 20:28N 51°54' E 004°28'0 0.0
2017-May-14 19:59N 51°54' E 004°28'0 0.0
2017-May-14 19:28N 51°54' E 004°28'0 0.0
2017-May-14 18:58N 51°54' E 004°28'1 1.8
2017-May-14 18:29N 51°54' E 004°29'0 0.0
2017-May-14 17:59N 51°54' E 004°29'0 0.0
2017-May-14 17:30N 51°54' E 004°29'0 0.0
2017-May-14 16:59N 51°54' E 004°29'0 0.0
2017-May-14 16:31N 51°54' E 004°29'2 3.6
2017-May-14 16:01N 51°54' E 004°26'4 7.9
2017-May-14 15:30N 51°54' E 004°20'4 8.5
2017-May-14 15:01N 51°55' E 004°14'4 7.6
2017-May-14 14:30N 51°58' E 004°09'5 5.4
2017-May-14 13:31N 52°01' E 004°01'2 3.2
2017-May-14 13:01N 52°02' E 004°00'4 8.0
2017-May-14 12:30N 52°05' E 003°55'2 4.1
2017-May-14 12:01N 52°03' E 003°58'3 6.1
2017-May-14 11:30N 52°01' E 004°01'1 1.3
2017-May-14 11:00N 52°01' E 004°02'3 6.1
2017-May-14 10:31N 51°59' E 004°06'4 7.7
2017-May-14 10:00N 51°57' E 004°11'4 8.0
2017-May-14 09:31N 51°54' E 004°16'3 6.5
2017-May-14 09:00N 51°54' E 004°22'3 6.6
2017-May-14 08:31N 51°54' E 004°27'1 2.5
2017-May-14 07:58N 51°54' E 004°29'0 0.0
2017-May-14 07:28N 51°54' E 004°29'0 0.0
2017-May-14 06:58N 51°54' E 004°29'0 0.0
2017-May-14 06:28N 51°54' E 004°29'0 0.0
2017-May-14 05:58N 51°54' E 004°29'0 0.0
2017-May-14 05:28N 51°54' E 004°29'0 0.0
2017-May-14 04:58N 51°54' E 004°29'0 0.0
2017-May-14 04:28N 51°54' E 004°29'0 0.0
2017-May-14 03:55N 51°54' E 004°29'0 0.0
2017-May-14 03:28N 51°54' E 004°29'0 0.0
2017-May-14 02:58N 51°54' E 004°29'0 0.0
2017-May-14 02:28N 51°54' E 004°29'0 0.2
2017-May-14 01:58N 51°54' E 004°29'0 0.2
2017-May-14 01:28N 51°54' E 004°29'0 0.0
2017-May-14 00:58N 51°54' E 004°29'0 0.0
2017-May-14 00:28N 51°54' E 004°29'0 0.0
2017-May-13 23:58N 51°54' E 004°29'0 0.0
2017-May-13 23:28N 51°54' E 004°29'0 0.0
2017-May-13 22:58N 51°54' E 004°29'0 0.0
2017-May-13 22:28N 51°54' E 004°29'0 0.0
2017-May-13 21:58N 51°54' E 004°29'0 0.0
2017-May-13 21:28N 51°54' E 004°29'0 0.0
2017-May-13 21:01N 51°54' E 004°29'0 0.0
2017-May-13 20:31N 51°54' E 004°29'0 0.0
2017-May-13 20:00N 51°54' E 004°29'0 0.0
2017-May-13 19:31N 51°54' E 004°29'0 0.0
2017-May-13 19:00N 51°54' E 004°29'0 0.0
2017-May-13 18:30N 51°54' E 004°29'0 0.0
2017-May-13 18:00N 51°54' E 004°29'0 0.0
2017-May-13 17:30N 51°54' E 004°29'0 0.0
2017-May-13 17:00N 51°54' E 004°29'2 3.5
2017-May-13 16:30N 51°54' E 004°26'4 8.4
2017-May-13 16:01N 51°54' E 004°19'5 9.2
2017-May-13 15:30N 51°56' E 004°13'5 9.2
2017-May-13 15:00N 51°59' E 004°07'3 6.8
2017-May-13 14:30N 52°00' E 004°02'4 4.0
2017-May-13 13:30N 52°03' E 003°58'2 3.9
2017-May-13 13:00N 52°04' E 003°55'1 1.0
2017-May-13 12:30N 52°05' E 003°55'3 5.3
2017-May-13 12:00N 52°03' E 003°58'2 4.9
2017-May-13 11:30N 52°02' E 004°01'1 2.0
2017-May-13 11:00N 52°01' E 004°03'3 5.0
2017-May-13 10:30N 51°59' E 004°05'4 8.0
2017-May-13 10:00N 51°57' E 004°10'4 8.2
2017-May-13 09:30N 51°55' E 004°15'3 6.9
2017-May-13 09:00N 51°54' E 004°21'  

Dump ship's entire track history